メインページ
METAR-TAF:

METAR-TAF

空港 :

Al-Hasa, サウジアラビア

緯度: 25-18N, 経度: 049-29E, 海抜: 179m

現時点の気象観測

当レポートは31分前の09:00(UTC)に作成
の風 6kt
気温 22°C
湿度 65%
気圧 1021 hPa
視程10km以上
高度4000ftの雲はほとんどない

METAR: OEAH 190900Z 01006KT 9999 FEW040 22/15 Q1021 NOSIG

時間: 12:31 (09:31 UTC)

予報

当レポートは10時間31分前の23:00(UTC)に作成
予報は19日の 00時(UTC)から 20日の 06時(UTC)まで有効
変向風 3kt
視程: 7000m
19日の 06時(UTC)から 19日の 08時(UTC)まで徐々に
東/北東の風 10kt

TAF: OEAH 182300Z 1900/2006 VRB03KT 7000 NSC BECMG 1906/1908 07010KT

4,000以上の空港の気象観測と天気予報(METAR報とTAF報)

利用可能な観測所は地図上に黄色い丸と赤い丸で示す。

丸の上にカーソルを重ねると観測所名を参照できる。

次にクリックすると気象観測と天気予報を参照できる。

マップの切り替え:黒色「×」印の緑ボタンをクリックして拡大、「-」印の緑ボタンをクリックして縮小、緑色の三角印をクリックして隣りの地図に切り替え


METAR-TAF: